createdAt,value
2019-04-24T00:02:15.188Z,7.73
2019-04-24T00:04:43.926Z,8.30
2019-04-24T00:07:09.105Z,8.40
2019-04-24T00:09:52.244Z,7.70
2019-04-24T00:12:50.442Z,8.53
2019-04-24T00:15:37.398Z,8.80
2019-04-24T00:23:10.954Z,9.07
2019-04-24T00:25:39.613Z,9.50
2019-04-24T00:28:17.536Z,10.47
2019-04-24T00:30:40.811Z,10.97
2019-04-24T00:36:06.064Z,11.30
2019-04-24T00:41:06.423Z,12.80
2019-04-24T00:45:56.607Z,11.90
2019-04-24T00:48:36.266Z,12.83
2019-04-24T00:51:07.921Z,12.73
2019-04-24T00:56:05.608Z,14.13
2019-04-24T01:01:34.782Z,13.77
2019-04-24T01:04:54.432Z,14.80
2019-04-24T01:07:13.720Z,13.90
2019-04-24T01:09:29.000Z,12.77
2019-04-24T01:11:59.760Z,11.40
2019-04-24T01:14:22.895Z,12.17
2019-04-24T01:17:09.894Z,12.67
2019-04-24T01:19:28.361Z,11.77
2019-04-24T01:22:10.034Z,12.47
2019-04-24T01:24:28.659Z,12.03
2019-04-24T01:26:59.395Z,13.13
2019-04-24T01:29:34.535Z,13.80
2019-04-24T01:32:10.072Z,13.60
2019-04-24T01:34:56.777Z,13.63
2019-04-24T01:43:05.749Z,14.40
2019-04-24T01:45:28.887Z,14.63
2019-04-24T01:48:16.403Z,14.03
2019-04-24T01:55:23.994Z,13.83
2019-04-24T01:58:00.783Z,15.23
2019-04-24T02:00:37.344Z,14.60
2019-04-24T02:02:53.670Z,14.97
2019-04-24T02:05:31.600Z,15.70
2019-04-24T02:08:19.729Z,15.37
2019-04-24T02:13:27.043Z,15.30
2019-04-24T02:15:38.429Z,16.13
2019-04-24T02:18:20.078Z,17.37
2019-04-24T02:20:43.123Z,17.53
2019-04-24T02:23:19.066Z,16.13
2019-04-24T02:25:54.660Z,16.07
2019-04-24T02:31:05.902Z,16.43
2019-04-24T02:41:47.242Z,16.27
2019-04-24T02:44:31.962Z,16.17
2019-04-24T02:58:17.604Z,17.27
2019-04-24T03:03:42.748Z,16.40
2019-04-24T03:14:17.014Z,15.20
2019-04-24T03:22:13.823Z,15.93
2019-04-24T03:40:50.521Z,14.73
2019-04-24T03:43:11.921Z,14.10
2019-04-24T03:53:23.419Z,13.53
2019-04-24T03:56:05.858Z,11.50
2019-04-24T04:01:42.204Z,12.20
2019-04-24T04:04:13.452Z,12.67
2019-04-24T04:09:16.384Z,14.13
2019-04-24T04:11:45.520Z,13.43
2019-04-24T04:14:31.824Z,13.23
2019-04-24T04:16:51.414Z,12.07
2019-04-24T04:19:17.049Z,12.10
2019-04-24T04:21:44.909Z,12.23
2019-04-24T04:24:26.395Z,12.43
2019-04-24T04:35:18.186Z,12.83
2019-04-24T04:37:53.101Z,12.30
2019-04-24T04:45:22.145Z,13.17
2019-04-24T04:47:48.687Z,14.17
2019-04-24T04:53:32.973Z,13.10
2019-04-24T04:56:17.144Z,13.30
2019-04-24T05:03:23.903Z,13.90
2019-04-24T05:06:33.866Z,14.07
2019-04-24T05:09:22.633Z,12.47
2019-04-24T05:14:10.693Z,12.77
2019-04-24T05:21:36.217Z,10.90
2019-04-24T05:27:04.868Z,10.93
2019-04-24T05:29:13.704Z,11.63
2019-04-24T05:31:38.376Z,10.57
2019-04-24T05:34:19.316Z,10.43
2019-04-24T05:41:55.522Z,11.30
2019-04-24T05:46:49.883Z,12.10
2019-04-24T05:49:46.760Z,11.97
2019-04-24T05:52:00.714Z,11.40
2019-04-24T05:54:37.994Z,10.77
2019-04-24T06:05:19.809Z,10.43
2019-04-24T06:16:25.254Z,10.27
2019-04-24T06:19:23.766Z,10.27
2019-04-24T06:21:54.061Z,9.83
2019-04-24T06:26:45.905Z,9.50
2019-04-24T06:37:33.530Z,9.10
2019-04-24T06:40:56.571Z,7.43
2019-04-24T06:43:08.533Z,8.60
2019-04-24T06:48:08.857Z,7.27
2019-04-24T06:55:49.014Z,6.97
2019-04-24T06:58:18.973Z,7.00
2019-04-24T07:01:14.609Z,5.03
2019-04-24T07:12:21.263Z,4.97
2019-04-24T07:14:44.534Z,5.40
2019-04-24T07:17:23.782Z,4.37
2019-04-24T07:19:47.166Z,5.47
2019-04-24T07:22:22.052Z,5.13
2019-04-24T07:30:02.093Z,4.93
2019-04-24T07:35:36.794Z,3.93
2019-04-24T07:41:01.632Z,4.93
2019-04-24T07:46:16.242Z,3.87
2019-04-24T07:51:31.174Z,4.63
2019-04-24T07:56:59.297Z,5.17
2019-04-24T08:02:35.401Z,5.27
2019-04-24T08:07:39.914Z,5.47
2019-04-24T08:13:37.232Z,5.17
2019-04-24T08:16:06.017Z,4.70
2019-04-24T08:18:46.789Z,4.07
2019-04-24T08:23:49.306Z,6.13
2019-04-24T08:26:06.936Z,6.43
2019-04-24T08:28:52.070Z,6.27
2019-04-24T08:36:44.290Z,4.43
2019-04-24T08:39:36.696Z,5.77
2019-04-24T08:42:02.506Z,5.77
2019-04-24T08:44:30.571Z,5.80
2019-04-24T08:49:50.234Z,6.70
2019-04-24T08:54:29.794Z,4.33
2019-04-24T08:57:20.853Z,4.87
2019-04-24T09:03:02.046Z,4.17
2019-04-24T09:07:59.418Z,4.87
2019-04-24T09:10:44.810Z,4.87
2019-04-24T09:13:17.231Z,5.03
2019-04-24T09:18:22.409Z,4.60
2019-04-24T09:20:45.325Z,4.13
2019-04-24T09:23:18.755Z,3.10
2019-04-24T09:28:52.938Z,3.73
2019-04-24T09:31:12.762Z,3.50
2019-04-24T09:36:52.597Z,3.83
2019-04-24T09:42:05.950Z,3.17
2019-04-24T09:44:35.572Z,4.27
2019-04-24T09:46:55.861Z,4.60
2019-04-24T09:49:22.520Z,4.40
2019-04-24T09:52:04.701Z,3.97
2019-04-24T09:55:02.194Z,3.10
2019-04-24T09:57:27.636Z,3.73
2019-04-24T09:59:47.038Z,2.83
2019-04-24T10:05:35.995Z,2.67
2019-04-24T10:08:12.599Z,3.03
2019-04-24T10:13:08.088Z,3.23
2019-04-24T10:18:10.125Z,2.57
2019-04-24T10:20:44.653Z,3.27
2019-04-24T10:23:48.375Z,3.10
2019-04-24T10:26:12.624Z,2.63
2019-04-24T10:32:06.157Z,2.53
2019-04-24T10:34:30.708Z,2.43
2019-04-24T10:37:08.826Z,3.80
2019-04-24T10:40:22.560Z,3.23
2019-04-24T10:42:24.083Z,2.60
2019-04-24T10:45:16.827Z,3.20
2019-04-24T10:50:54.093Z,2.30
2019-04-24T10:53:32.447Z,2.80
2019-04-24T10:58:34.179Z,3.57
2019-04-24T11:01:23.366Z,3.27
2019-04-24T11:04:05.598Z,2.70
2019-04-24T11:06:52.263Z,3.23
2019-04-24T11:12:12.563Z,3.63
2019-04-24T11:15:12.337Z,3.20
2019-04-24T11:17:36.204Z,3.23
2019-04-24T11:20:54.684Z,3.03
2019-04-24T11:23:27.290Z,3.73
2019-04-24T11:26:13.423Z,3.57
2019-04-24T11:28:49.619Z,3.10
2019-04-24T11:31:32.238Z,3.87
2019-04-24T11:34:39.670Z,3.27
2019-04-24T11:42:02.626Z,3.27
2019-04-24T11:44:33.365Z,3.87
2019-04-24T11:53:10.709Z,3.10
2019-04-24T12:01:43.778Z,3.40
2019-04-24T12:04:35.418Z,3.33
2019-04-24T12:07:08.042Z,3.50
2019-04-24T12:09:37.798Z,3.10
2019-04-24T12:12:05.967Z,3.77
2019-04-24T12:15:05.825Z,3.13
2019-04-24T12:20:57.172Z,3.73
2019-04-24T12:23:15.165Z,3.67
2019-04-24T12:26:01.097Z,2.83
2019-04-24T12:28:13.902Z,3.13
2019-04-24T12:30:52.680Z,3.60
2019-04-24T12:33:24.723Z,3.17
2019-04-24T12:35:44.361Z,2.97
2019-04-24T12:41:18.189Z,3.50
2019-04-24T12:44:01.768Z,2.97
2019-04-24T12:46:47.434Z,3.33
2019-04-24T12:54:08.838Z,3.57
2019-04-24T12:57:06.718Z,2.87
2019-04-24T13:02:29.839Z,2.70
2019-04-24T13:05:00.471Z,3.13
2019-04-24T13:07:50.411Z,3.50
2019-04-24T13:10:11.795Z,3.67
2019-04-24T13:13:08.427Z,3.77
2019-04-24T13:15:56.481Z,2.50
2019-04-24T13:20:32.762Z,3.13
2019-04-24T13:23:11.824Z,3.27
2019-04-24T13:26:13.974Z,2.50
2019-04-24T13:31:34.823Z,3.00
2019-04-24T13:34:03.691Z,2.80
2019-04-24T13:36:41.505Z,3.67
2019-04-24T13:41:42.633Z,2.00
2019-04-24T13:46:29.909Z,3.00
2019-04-24T13:51:33.331Z,2.53
2019-04-24T13:54:08.930Z,3.03
2019-04-24T13:56:32.997Z,2.90
2019-04-24T13:59:07.696Z,3.40
2019-04-24T14:01:42.635Z,3.63
2019-04-24T14:04:08.967Z,3.10
2019-04-24T14:06:48.808Z,3.57
2019-04-24T14:09:15.910Z,2.73
2019-04-24T14:12:35.870Z,2.90
2019-04-24T14:14:13.287Z,2.73
2019-04-24T14:19:42.113Z,3.30
2019-04-24T14:22:06.029Z,3.07
2019-04-24T14:24:57.841Z,3.43
2019-04-24T14:27:13.345Z,3.07
2019-04-24T14:29:44.744Z,3.10
2019-04-24T14:32:08.490Z,3.23
2019-04-24T14:37:17.547Z,2.87
2019-04-24T14:40:11.217Z,3.03
2019-04-24T14:42:20.449Z,3.37
2019-04-24T14:45:14.570Z,2.60
2019-04-24T14:47:37.979Z,2.63
2019-04-24T14:55:16.361Z,3.73
2019-04-24T14:57:46.712Z,3.27
2019-04-24T15:00:18.346Z,3.10
2019-04-24T15:02:52.876Z,2.43
2019-04-24T15:08:03.034Z,2.27
2019-04-24T15:10:16.247Z,2.20
2019-04-24T15:18:07.155Z,3.03
2019-04-24T15:20:26.997Z,2.63
2019-04-24T15:25:45.760Z,1.90
2019-04-24T15:30:39.182Z,2.30
2019-04-24T15:33:13.346Z,2.27
2019-04-24T15:35:39.601Z,2.03
2019-04-24T15:38:16.908Z,3.33
2019-04-24T15:45:47.348Z,2.43
2019-04-24T15:48:21.075Z,2.57
2019-04-24T15:52:41.560Z,3.57
2019-04-24T15:55:17.126Z,2.80
2019-04-24T15:57:47.565Z,2.20
2019-04-24T16:00:47.347Z,3.37
2019-04-24T16:03:27.876Z,2.97
2019-04-24T16:05:21.130Z,2.40
2019-04-24T16:07:56.014Z,2.77
2019-04-24T16:10:28.872Z,3.17
2019-04-24T16:12:57.727Z,3.00
2019-04-24T16:18:45.821Z,2.57
2019-04-24T16:21:14.314Z,3.27
2019-04-24T16:23:45.182Z,2.97
2019-04-24T16:28:26.734Z,3.03
2019-04-24T16:31:10.495Z,3.00
2019-04-24T16:36:20.733Z,3.27
2019-04-24T16:38:40.145Z,3.37
2019-04-24T16:44:05.908Z,2.90
2019-04-24T16:49:00.066Z,3.90
2019-04-24T16:51:32.628Z,2.47
2019-04-24T16:59:09.836Z,3.17
2019-04-24T17:01:34.351Z,4.23
2019-04-24T17:04:26.299Z,3.83
2019-04-24T17:09:05.541Z,4.30
2019-04-24T17:14:27.391Z,3.97
2019-04-24T17:27:31.463Z,3.20
2019-04-24T17:35:26.485Z,2.83
2019-04-24T17:37:06.980Z,2.67
2019-04-24T17:39:44.557Z,2.73
2019-04-24T17:42:29.008Z,4.73
2019-04-24T17:47:50.830Z,3.93
2019-04-24T17:50:18.247Z,3.30
2019-04-24T17:55:11.214Z,4.87
2019-04-24T17:59:48.364Z,4.00
2019-04-24T18:02:19.206Z,3.57
2019-04-24T18:04:47.711Z,3.40
2019-04-24T18:07:16.225Z,3.30
2019-04-24T18:09:44.736Z,2.93
2019-04-24T18:12:13.998Z,5.63
2019-04-24T18:14:42.561Z,4.00
2019-04-24T18:17:12.453Z,3.97
2019-04-24T18:19:42.082Z,3.23
2019-04-24T18:22:12.633Z,4.00
2019-04-24T18:24:59.162Z,4.17
2019-04-24T18:27:31.370Z,2.50
2019-04-24T18:30:01.789Z,3.67
2019-04-24T18:32:31.458Z,3.73
2019-04-24T18:35:00.316Z,3.47
2019-04-24T18:37:29.043Z,3.10
2019-04-24T18:39:57.540Z,3.67
2019-04-24T18:42:25.984Z,3.07
2019-04-24T18:44:54.524Z,2.87
2019-04-24T18:47:22.953Z,3.47
2019-04-24T18:49:51.978Z,3.57
2019-04-24T18:52:22.046Z,3.47
2019-04-24T18:54:51.955Z,4.17
2019-04-24T18:57:22.048Z,3.70
2019-04-24T18:59:51.684Z,4.50
2019-04-24T19:02:22.052Z,4.20
2019-04-24T19:04:51.373Z,3.83
2019-04-24T19:07:19.947Z,3.87
2019-04-24T19:09:48.881Z,4.17
2019-04-24T19:12:18.055Z,3.33
2019-04-24T19:14:47.371Z,3.67
2019-04-24T19:17:17.631Z,3.90
2019-04-24T19:19:48.110Z,2.60
2019-04-24T19:22:18.092Z,3.77
2019-04-24T19:24:47.688Z,3.27
2019-04-24T19:27:17.568Z,3.73
2019-04-24T19:29:47.347Z,3.40
2019-04-24T19:32:17.216Z,3.57
2019-04-24T19:34:47.464Z,3.90
2019-04-24T19:37:17.387Z,2.77
2019-04-24T19:39:47.325Z,3.70
2019-04-24T19:42:18.594Z,4.33
2019-04-24T19:44:48.791Z,2.87
2019-04-24T19:47:33.983Z,3.07
2019-04-24T19:49:52.181Z,3.90
2019-04-24T19:52:34.673Z,4.10
2019-04-24T19:55:05.174Z,4.00
2019-04-24T19:57:35.319Z,4.43
2019-04-24T20:00:07.156Z,3.50
2019-04-24T20:02:38.308Z,4.37
2019-04-24T20:05:08.787Z,2.80
2019-04-24T20:07:38.737Z,3.63
2019-04-24T20:10:23.567Z,3.57
2019-04-24T20:12:53.912Z,3.20
2019-04-24T20:15:23.723Z,3.37
2019-04-24T20:17:53.638Z,3.63
2019-04-24T20:20:23.546Z,3.17
2019-04-24T20:22:54.168Z,2.83
2019-04-24T20:25:24.047Z,3.57
2019-04-24T20:27:53.959Z,3.40
2019-04-24T20:30:24.177Z,2.50
2019-04-24T20:32:53.985Z,2.70
2019-04-24T20:35:24.966Z,2.43
2019-04-24T20:37:55.518Z,2.47
2019-04-24T20:40:26.286Z,2.37
2019-04-24T20:42:56.454Z,2.10
2019-04-24T20:45:27.032Z,2.70
2019-04-24T20:47:57.104Z,3.07
2019-04-24T20:50:26.270Z,2.30
2019-04-24T20:52:56.241Z,3.27
2019-04-24T20:55:25.186Z,2.43
2019-04-24T20:57:54.434Z,3.10
2019-04-24T21:00:26.373Z,2.10
2019-04-24T21:02:54.910Z,2.07
2019-04-24T21:05:26.132Z,2.70
2019-04-24T21:08:14.081Z,2.63
2019-04-24T21:10:42.631Z,2.70
2019-04-24T21:13:11.550Z,1.93
2019-04-24T21:15:41.230Z,2.60
2019-04-24T21:18:09.959Z,3.43
2019-04-24T21:20:38.621Z,2.27
2019-04-24T21:23:07.112Z,2.27
2019-04-24T21:25:35.545Z,2.27
2019-04-24T21:28:04.180Z,2.90
2019-04-24T21:30:33.176Z,2.37
2019-04-24T21:33:02.101Z,2.40
2019-04-24T21:35:30.866Z,2.37
2019-04-24T21:38:02.432Z,2.37
2019-04-24T21:40:32.267Z,2.43
2019-04-24T21:43:01.665Z,2.20
2019-04-24T21:45:30.240Z,2.97
2019-04-24T21:47:58.785Z,1.67
2019-04-24T21:50:27.228Z,2.70
2019-04-24T21:52:55.821Z,2.60
2019-04-24T21:55:24.799Z,2.23
2019-04-24T21:58:04.064Z,2.83
2019-04-24T22:01:14.262Z,1.57
2019-04-24T22:04:01.066Z,1.33
2019-04-24T22:06:34.854Z,2.17
2019-04-24T22:09:09.375Z,2.77
2019-04-24T22:11:38.018Z,1.77
2019-04-24T22:14:08.624Z,2.13
2019-04-24T22:16:37.065Z,3.43
2019-04-24T22:19:05.666Z,2.93
2019-04-24T22:21:35.910Z,1.70
2019-04-24T22:24:21.680Z,2.20
2019-04-24T22:26:50.113Z,1.83
2019-04-24T22:29:19.264Z,2.07
2019-04-24T22:31:57.463Z,2.00
2019-04-24T22:34:33.842Z,1.60
2019-04-24T22:37:02.438Z,1.70
2019-04-24T22:39:39.201Z,2.83
2019-04-24T22:42:07.636Z,2.20
2019-04-24T22:44:36.138Z,2.07
2019-04-24T22:47:05.084Z,1.70
2019-04-24T22:49:33.612Z,2.10
2019-04-24T22:52:03.119Z,2.27
2019-04-24T22:54:36.946Z,2.30
2019-04-24T22:57:02.775Z,2.13
2019-04-24T22:59:33.322Z,1.80
2019-04-24T23:02:02.955Z,1.70
2019-04-24T23:04:33.428Z,3.00
2019-04-24T23:07:01.895Z,1.80
2019-04-24T23:09:34.704Z,1.97
2019-04-24T23:12:04.404Z,1.20
2019-04-24T23:14:33.633Z,1.70
2019-04-24T23:17:02.153Z,1.87
2019-04-24T23:19:34.770Z,1.63
2019-04-24T23:22:32.975Z,1.50
2019-04-24T23:25:18.705Z,1.47
2019-04-24T23:27:54.572Z,1.80
2019-04-24T23:30:46.012Z,1.70
2019-04-24T23:33:25.830Z,1.43
2019-04-24T23:35:54.932Z,1.67
2019-04-24T23:38:23.361Z,1.60
2019-04-24T23:40:52.121Z,1.73
2019-04-24T23:43:21.002Z,1.40
2019-04-24T23:45:49.488Z,1.37
2019-04-24T23:48:17.990Z,1.83
2019-04-24T23:50:46.481Z,2.17
2019-04-24T23:53:14.989Z,1.60
2019-04-24T23:55:43.798Z,1.67
2019-04-24T23:58:13.486Z,2.23
